Historyczne dane pomiarowe

Dodano dane terminowe – wersja testowa.

Dane z okresu 1951-2019

Wersja bazy: 1.34 [2019-03-16, lista zmian], aktualizacja planowana na 2019-04-15

Dane meteo z obszaru Polski uzyskane na podstawie danych udostępnionych przez Instytut Meteorologii i Gospodarki Wodnej – Państwowy Instytut Badawczy.

 

Wybierz Datę:    

       

TemperaturaWilgotnośćZachmurzenieWiatrCiśnienieWidzialnośćZjawiska
 Data    tng td wb rh cc ccl cl cm ch dir g1 g2 mslp ppp      
1999-07-28 00:00:00 16.7--- 12.7 14.377wxwxwx2wx--1019.0 994.6 0.0---wx
1999-07-28 01:00:00 15.5--- 11.9 13.479wxwxwx1wx--1019.2 994.7----wx
1999-07-28 02:00:00 14.5--- 11.4 12.781wxwxwx2wx--1019.5 994.9----wx
1999-07-28 03:00:00 14.5--- 12.1 13.185wxwxwx2wx--1019.4 994.8----wx
1999-07-28 04:00:00 15.2--- 10.4 12.573wxwxwx1wx--1019.5 995.0----wx
1999-07-28 05:00:00 15.2--- 11.9 13.381wxwxwx2wx--1019.6 995.1----wx
1999-07-28 06:00:00 17.2--- 11.3 13.868wxwxwx3wx--1019.6 995.2 0.0---wx
1999-07-28 07:00:00 19.4--- 10.8 14.458wxwxwx3wx--1019.3 995.1----wx
1999-07-28 08:00:00 20.2--- 11.0 14.855wxwxwx4wx--1019.1 995.0----wx
1999-07-28 09:00:00 21.4--- 12.8 16.258wxwxwx3wx--1018.8 994.8----wx
1999-07-28 10:00:00 22.0--- 11.6 15.852wxwxwx4wx--1018.4 994.4----wx
1999-07-28 11:00:00 23.0--- 11.7 16.249wxwxwx4wx--1018.2 994.3----wx
1999-07-28 12:00:00 24.2--- 12.0 16.846wxwxwx5wx--1018.0 994.2 0.0---wx
1999-07-28 13:00:00 24.6--- 11.7 16.844wxwxwx3wx--1017.4 993.7----wx
1999-07-28 14:00:00 25.2--- 9.9 16.238wxwxwx4wx--1017.1 993.4----wx
1999-07-28 15:00:00 25.2--- 9.0 15.836wxwxwx4wx--1016.7 993.0----wx
1999-07-28 16:00:00 24.8--- 8.4 15.435wxwxwx4wx--1016.6 992.9----wx
1999-07-28 17:00:00 24.6--- 10.4 16.241wxwxwx3wx--1016.4 992.7----wx
1999-07-28 18:00:00 23.0--- 10.6 15.746wxwxwxwx3wx--1016.7 992.9 0.0---wx
1999-07-28 19:00:00 20.0--- 10.7 14.655wxwxwx2wx--1017.3 993.2----wx
1999-07-28 20:00:00 18.9--- 12.2 14.965wxwxwx2wx--1017.9 993.7----wx
1999-07-28 21:00:00 17.6--- 11.6 14.168wxwxwx2wx--1018.4 994.1----wx
1999-07-28 22:00:00 17.2--- 11.7 14.070wxwx3wx--1018.7 994.3----wx
1999-07-28 23:00:00 16.4--- 11.6 13.673wxwx2wx--1019.0 994.6----wx

 

Źródłem pochodzenia danych jest Instytut Meteorologii i Gospodarki Wodnej – Państwowy Instytut Badawczy. Dane Instytutu Meteorologii i Gospodarki Wodnej – Państwowego Instytutu Badawczego zostały przetworzone.

Dane źródłowe można odnaleźć na stronie https://dane.imgw.pl